Time;durP1;ratioP1;P1;durP2;ratioP2;P2;SDS_P1;SDS_P2;PMS_P1;PMS_P2;Temp;Humidity;BMP_temperature;BMP_pressure;BME280_temperature;BME280_humidity;BME280_pressure;Samples;Min_cycle;Max_cycle;Signal;HPM_P1;HPM_P2
2021/08/24 00:00:11;;;;;;;;;;;18.60;93.60;18.60;99716.00;;;;343088;28;82575;-94
2021/08/24 00:00:24;;;;;;;;;;;18.60;93.60;18.60;99709.00;;;;344005;28;97095;-93
2021/08/24 00:00:36;;;;;;;;;;;18.60;93.60;18.60;99719.00;;;;340827;28;82485;-93
2021/08/24 00:00:49;;;;;;;;;;;18.60;93.60;18.60;99717.00;;;;342651;28;96052;-94
2021/08/24 00:01:01;;;;;;;;;;;18.60;93.60;18.60;99709.00;;;;346237;28;82421;-93
2021/08/24 00:01:17;;;;;;;;;;;18.60;93.70;18.50;99712.00;;;;341311;28;95475;-93
2021/08/24 00:01:29;;;;;;;;;;;18.50;93.70;18.50;99702.00;;;;343470;28;82450;-93
2021/08/24 00:01:42;;;;;;;;;;;18.50;93.70;18.50;99705.00;;;;342647;28;95899;-94
2021/08/24 00:01:54;;;;;;;;;;;18.50;93.80;18.40;99711.00;;;;343425;28;83418;-93
2021/08/24 00:02:06;;;;;;;;;;;18.50;93.90;18.50;99703.00;;;;342489;28;96184;-94
2021/08/24 00:02:19;;;;;;;;;;;18.50;93.80;18.60;99716.00;;;;341832;28;83544;-92
2021/08/24 00:02:31;;;;;;;;;;;18.50;93.80;18.60;99712.00;;;;341338;28;96402;-93
2021/08/24 00:02:43;;;;;;;;;;;18.50;93.80;18.50;99710.00;;;;341894;28;83553;-94
2021/08/24 00:02:56;;;;;;;;;;;18.50;93.80;18.50;99707.00;;;;341576;28;96697;-93
2021/08/24 00:03:08;;;;;;;;;;;18.50;93.90;18.50;99706.00;;;;344639;28;83528;-93
2021/08/24 00:03:20;;;;;;;;;;;18.50;93.80;18.60;99718.00;;;;343999;28;95959;-93
2021/08/24 00:03:32;;;;;;;;;;;18.50;93.80;18.60;99717.00;;;;340648;28;83414;-93
2021/08/24 00:03:44;;;;;;;;;;;18.50;93.80;18.60;99716.00;;;;339899;28;95451;-92
2021/08/24 00:03:56;;;;;;;;;;;18.50;93.80;18.60;99706.00;;;;343106;28;82561;-94
2021/08/24 00:04:08;;;;;;;;;;;18.50;93.80;18.60;99716.00;;;;341209;28;96712;-94
2021/08/24 00:04:20;;;;;;;;;;;18.50;93.80;18.50;99709.00;;;;341706;28;83542;-94
2021/08/24 00:04:32;;;;;;;;;;;18.50;93.90;18.50;99710.00;;;;344041;28;95641;-93
2021/08/24 00:04:44;;;;;;;;;;;18.50;93.90;18.50;99706.00;;;;343474;28;82525;-93
2021/08/24 00:04:55;;;;;;;;;;;18.50;93.90;18.50;99713.00;;;;341200;28;96425;-94
2021/08/24 00:05:08;;;;;;;;;;;18.50;93.90;18.60;99717.00;;;;344442;28;82542;-94
2021/08/24 00:05:31;;;;;;;;;;;18.50;93.90;18.50;99715.00;;;;339519;28;95514;-93
2021/08/24 00:05:43;;;;;;;;;;;18.50;93.90;18.50;99712.00;;;;343300;28;83583;-94
2021/08/24 00:05:55;;;;;;;;;;;18.50;93.90;18.50;99707.00;;;;343997;28;95431;-93
2021/08/24 00:06:07;;;;;;;;;;;18.50;93.90;18.50;99719.00;;;;340713;28;82617;-93
2021/08/24 00:06:19;;;;;;;;;;;18.50;93.90;18.50;99703.00;;;;341251;28;98049;-94
2021/08/24 00:06:31;;;;;;;;;;;18.40;93.90;18.50;99708.00;;;;344796;28;83464;-94
2021/08/24 00:06:43;;;;;;;;;;;18.50;94.00;18.40;99711.00;;;;343863;28;97425;-93
2021/08/24 00:06:54;;;;;;;;;;;18.40;94.00;18.50;99713.00;;;;341866;28;83446;-94
2021/08/24 00:07:06;;;;;;;;;;;18.40;94.00;18.40;99711.00;;;;341246;28;96291;-93
2021/08/24 00:07:18;;;;;;;;;;;18.40;94.10;18.40;99714.00;;;;343487;28;83396;-93
2021/08/24 00:07:30;;;;;;;;;;;18.40;94.00;18.40;99715.00;;;;342666;28;95428;-93
2021/08/24 00:07:42;;;;;;;;;;;18.40;94.20;18.50;99709.00;;;;342031;28;82575;-93
2021/08/24 00:07:56;;;;;;;;;;;18.40;94.00;18.50;99705.00;;;;339914;28;96884;-93
2021/08/24 00:08:09;;;;;;;;;;;18.40;94.00;18.50;99711.00;;;;342425;28;83761;-93
2021/08/24 00:08:21;;;;;;;;;;;18.40;94.00;18.50;99713.00;;;;343606;28;96910;-94
2021/08/24 00:08:35;;;;;;;;;;;18.40;94.00;18.50;99701.00;;;;342082;28;82495;-94
2021/08/24 00:08:47;;;;;;;;;;;18.40;94.00;18.50;99708.00;;;;341340;28;97268;-94
2021/08/24 00:08:58;;;;;;;;;;;18.40;94.10;18.50;99711.00;;;;339387;28;82587;-93
2021/08/24 00:09:10;;;;;;;;;;;18.40;94.10;18.40;99711.00;;;;341624;28;96666;-94
2021/08/24 00:09:22;;;;;;;;;;;18.40;94.10;18.40;99711.00;;;;343392;28;83417;-93
2021/08/24 00:09:34;;;;;;;;;;;18.40;94.10;18.50;99724.00;;;;343939;28;95012;-91
2021/08/24 00:09:46;;;;;;;;;;;18.40;94.10;18.50;99717.00;;;;344771;28;83504;-93
2021/08/24 00:09:58;;;;;;;;;;;18.40;94.10;18.50;99720.00;;;;339619;28;95950;-93
2021/08/24 00:10:11;;;;;;;;;;;18.40;94.20;18.50;99715.00;;;;343430;28;83543;-92
2021/08/24 00:10:27;;;;;;;;;;;18.40;94.20;18.40;99708.00;;;;342551;28;97425;-94
2021/08/24 00:10:45;;;;;;;;;;;18.40;94.20;18.40;99709.00;;;;343460;28;83395;-93
2021/08/24 00:10:57;;;;;;;;;;;18.40;94.30;18.40;99708.00;;;;342555;28;96925;-93
2021/08/24 00:11:10;;;;;;;;;;;18.40;94.30;18.50;99717.00;;;;342903;28;83650;-93
2021/08/24 00:11:22;;;;;;;;;;;18.40;94.30;18.50;99712.00;;;;342945;28;96803;-93
2021/08/24 00:11:34;;;;;;;;;;;18.40;94.30;18.50;99710.00;;;;341961;28;83561;-93
2021/08/24 00:11:46;;;;;;;;;;;18.40;94.30;18.50;99708.00;;;;339984;28;96927;-94
2021/08/24 00:11:58;;;;;;;;;;;18.40;94.30;18.50;99704.00;;;;343388;28;83461;-94
2021/08/24 00:12:12;;;;;;;;;;;18.40;94.30;18.50;99711.00;;;;343514;28;95532;-94
2021/08/24 00:12:25;;;;;;;;;;;18.40;94.30;18.50;99711.00;;;;341975;28;82537;-92
2021/08/24 00:12:37;;;;;;;;;;;18.40;94.30;18.50;99711.00;;;;338636;28;96789;-93
2021/08/24 00:12:48;;;;;;;;;;;18.40;94.30;18.50;99709.00;;;;340507;28;83541;-93
2021/08/24 00:13:00;;;;;;;;;;;18.40;94.30;18.50;99711.00;;;;341187;28;95892;-94
2021/08/24 00:13:13;;;;;;;;;;;18.40;94.30;18.50;99715.00;;;;338108;28;83480;-94
2021/08/24 00:13:26;;;;;;;;;;;18.40;94.30;18.60;99715.00;;;;342614;28;97263;-93
2021/08/24 00:13:38;;;;;;;;;;;18.40;94.30;18.50;99704.00;;;;343250;28;82605;-93
2021/08/24 00:13:50;;;;;;;;;;;18.40;94.30;18.50;99702.00;;;;339822;28;96624;-93
2021/08/24 00:14:03;;;;;;;;;;;18.40;94.30;18.60;99715.00;;;;343415;28;83413;-94
2021/08/24 00:14:15;;;;;;;;;;;18.40;94.20;18.60;99716.00;;;;342145;28;95800;-93
2021/08/24 00:14:27;;;;;;;;;;;18.40;94.20;18.60;99716.00;;;;341871;28;83684;-93
2021/08/24 00:14:39;;;;;;;;;;;18.40;94.20;18.50;99721.00;;;;341616;28;97674;-93
2021/08/24 00:14:51;;;;;;;;;;;18.40;94.30;18.50;99711.00;;;;340684;28;83389;-94
2021/08/24 00:15:04;;;;;;;;;;;18.40;94.30;18.50;99713.00;;;;340908;28;96750;-93
2021/08/24 00:15:16;;;;;;;;;;;18.40;94.30;18.50;99717.00;;;;344785;28;83519;-93
2021/08/24 00:15:28;;;;;;;;;;;18.40;94.30;18.50;99709.00;;;;341292;28;97187;-93
2021/08/24 00:15:40;;;;;;;;;;;18.40;94.30;18.50;99710.00;;;;340570;28;82603;-92
2021/08/24 00:15:52;;;;;;;;;;;18.40;94.40;18.50;99713.00;;;;342576;28;96824;-93
2021/08/24 00:16:04;;;;;;;;;;;18.40;94.40;18.50;99710.00;;;;342028;28;83460;-93
2021/08/24 00:16:17;;;;;;;;;;;18.40;94.40;18.50;99718.00;;;;338559;28;94854;-93
2021/08/24 00:16:29;;;;;;;;;;;18.40;94.30;18.50;99704.00;;;;340672;28;83480;-93
2021/08/24 00:16:41;;;;;;;;;;;18.40;94.40;18.50;99705.00;;;;342523;28;97658;-93
2021/08/24 00:16:53;;;;;;;;;;;18.40;94.40;18.50;99700.00;;;;344774;28;82550;-93
2021/08/24 00:17:05;;;;;;;;;;;18.40;94.40;18.50;99720.00;;;;341100;28;96572;-93
2021/08/24 00:17:17;;;;;;;;;;;18.40;94.40;18.50;99715.00;;;;340119;28;82617;-93
2021/08/24 00:17:29;;;;;;;;;;;18.40;94.50;18.40;99716.00;;;;341153;28;98979;-94
2021/08/24 00:17:41;;;;;;;;;;;18.40;94.50;18.50;99702.00;;;;344671;28;82614;-93
2021/08/24 00:17:53;;;;;;;;;;;18.40;94.50;18.50;99706.00;;;;344023;28;95125;-93
2021/08/24 00:18:06;;;;;;;;;;;18.40;94.60;18.40;99713.00;;;;344737;28;83452;-94
2021/08/24 00:18:18;;;;;;;;;;;18.40;94.60;18.50;99713.00;;;;339805;28;96678;-93
2021/08/24 00:18:31;;;;;;;;;;;18.40;94.50;18.50;99705.00;;;;340678;28;83443;-94
2021/08/24 00:18:44;;;;;;;;;;;18.40;94.50;18.50;99714.00;;;;341018;28;96695;-93
2021/08/24 00:18:56;;;;;;;;;;;18.30;94.50;18.40;99715.00;;;;340556;28;83288;-93
2021/08/24 00:19:09;;;;;;;;;;;18.40;94.50;18.40;99721.00;;;;341214;28;94648;-94
2021/08/24 00:19:22;;;;;;;;;;;18.40;94.50;18.50;99708.00;;;;342085;28;83434;-93
2021/08/24 00:19:33;;;;;;;;;;;18.40;94.70;18.30;99712.00;;;;338486;28;97096;-93
2021/08/24 00:19:45;;;;;;;;;;;18.40;94.60;18.40;99705.00;;;;342012;28;83448;-93
2021/08/24 00:19:57;;;;;;;;;;;18.30;94.60;18.30;99720.00;;;;342651;28;96786;-93
2021/08/24 00:20:10;;;;;;;;;;;18.40;94.70;18.40;99713.00;;;;342377;28;83641;-94
2021/08/24 00:20:22;;;;;;;;;;;18.30;94.60;18.40;99718.00;;;;342593;28;96252;-93
2021/08/24 00:20:34;;;;;;;;;;;18.30;94.70;18.40;99716.00;;;;337980;28;82563;-94
2021/08/24 00:20:47;;;;;;;;;;;18.30;94.60;18.30;99722.00;;;;339784;28;97465;-93
2021/08/24 00:20:59;;;;;;;;;;;18.30;94.70;18.40;99706.00;;;;341791;28;83456;-93
2021/08/24 00:21:11;;;;;;;;;;;18.30;94.70;18.30;99719.00;;;;341199;28;96075;-93
2021/08/24 00:21:24;;;;;;;;;;;18.30;94.70;18.40;99719.00;;;;344804;28;83442;-93
2021/08/24 00:21:37;;;;;;;;;;;18.30;94.70;18.40;99714.00;;;;342562;28;96940;-93
2021/08/24 00:21:49;;;;;;;;;;;18.30;94.70;18.40;99705.00;;;;340817;28;82475;-93
2021/08/24 00:22:01;;;;;;;;;;;18.30;94.70;18.40;99717.00;;;;343970;28;95603;-94
2021/08/24 00:22:12;;;;;;;;;;;18.30;94.80;18.30;99722.00;;;;344503;28;82666;-94
2021/08/24 00:22:24;;;;;;;;;;;18.30;94.80;18.40;99704.00;;;;342687;28;96478;-94
2021/08/24 00:22:37;;;;;;;;;;;18.30;94.70;18.40;99711.00;;;;339421;28;82899;-93
2021/08/24 00:22:49;;;;;;;;;;;18.30;94.80;18.40;99710.00;;;;341214;28;96399;-94
2021/08/24 00:23:05;;;;;;;;;;;18.30;94.70;18.40;99711.00;;;;344720;28;83484;-93
2021/08/24 00:23:19;;;;;;;;;;;18.30;94.80;18.30;99719.00;;;;341993;28;95715;-93
2021/08/24 00:23:31;;;;;;;;;;;18.30;94.90;18.40;99714.00;;;;343496;28;82512;-93
2021/08/24 00:23:43;;;;;;;;;;;18.30;94.90;18.40;99717.00;;;;341237;28;96231;-94
2021/08/24 00:23:55;;;;;;;;;;;18.30;94.80;18.50;99709.00;;;;343366;28;83436;-93
2021/08/24 00:24:08;;;;;;;;;;;18.30;94.80;18.40;99713.00;;;;341270;28;96337;-94
2021/08/24 00:24:20;;;;;;;;;;;18.30;94.80;18.30;99709.00;;;;340492;28;82628;-94
2021/08/24 00:24:32;;;;;;;;;;;18.30;94.90;18.40;99708.00;;;;341334;28;95162;-93
2021/08/24 00:24:44;;;;;;;;;;;18.30;94.80;18.40;99713.00;;;;344797;28;82482;-94
2021/08/24 00:24:55;;;;;;;;;;;18.30;94.80;18.40;99711.00;;;;339433;28;95761;-94
2021/08/24 00:25:10;;;;;;;;;;;18.30;94.90;18.40;99709.00;;;;341987;28;83431;-93
2021/08/24 00:25:22;;;;;;;;;;;18.30;94.90;18.40;99717.00;;;;342656;28;95919;-93
2021/08/24 00:25:34;;;;;;;;;;;18.30;94.80;18.40;99716.00;;;;341946;28;83552;-93
2021/08/24 00:25:51;;;;;;;;;;;18.30;94.80;18.40;99721.00;;;;342618;28;96588;-93
2021/08/24 00:26:03;;;;;;;;;;;18.30;94.80;18.40;99714.00;;;;343420;28;83524;-94
2021/08/24 00:26:15;;;;;;;;;;;18.30;94.80;18.40;99710.00;;;;344826;28;95144;-93
2021/08/24 00:26:27;;;;;;;;;;;18.30;94.80;18.40;99718.00;;;;343241;28;82622;-94
2021/08/24 00:26:38;;;;;;;;;;;18.30;94.90;18.40;99707.00;;;;342580;28;96067;-93
2021/08/24 00:26:50;;;;;;;;;;;18.30;94.90;18.30;99718.00;;;;342047;28;83474;-93
2021/08/24 00:27:02;;;;;;;;;;;18.30;94.90;18.40;99717.00;;;;341108;28;97171;-94
2021/08/24 00:27:14;;;;;;;;;;;18.30;94.80;18.40;99709.00;;;;343382;28;83461;-93
2021/08/24 00:27:26;;;;;;;;;;;18.30;94.80;18.40;99709.00;;;;342632;28;96692;-93
2021/08/24 00:27:38;;;;;;;;;;;18.30;94.90;18.40;99705.00;;;;343375;28;82614;-94
2021/08/24 00:27:50;;;;;;;;;;;18.30;94.80;18.50;99704.00;;;;341289;28;96382;-94
2021/08/24 00:28:02;;;;;;;;;;;18.30;94.90;18.50;99714.00;;;;343317;28;83388;-93
2021/08/24 00:28:14;;;;;;;;;;;18.30;94.90;18.50;99711.00;;;;342423;28;97222;-94
2021/08/24 00:28:26;;;;;;;;;;;18.30;94.90;18.50;99710.00;;;;342038;28;82617;-94
2021/08/24 00:28:38;;;;;;;;;;;18.30;94.90;18.50;99707.00;;;;342669;28;96696;-94
2021/08/24 00:28:50;;;;;;;;;;;18.30;94.90;18.40;99707.00;;;;344814;28;83477;-94
2021/08/24 00:29:02;;;;;;;;;;;18.30;94.90;18.30;99715.00;;;;342515;28;97492;-94
2021/08/24 00:29:14;;;;;;;;;;;18.30;95.00;18.40;99715.00;;;;341592;28;82548;-93
2021/08/24 00:29:26;;;;;;;;;;;18.30;95.00;18.40;99707.00;;;;342574;28;96380;-93
2021/08/24 00:29:38;;;;;;;;;;;18.30;95.00;18.40;99714.00;;;;341462;28;83493;-94
2021/08/24 00:29:50;;;;;;;;;;;18.30;95.00;18.40;99704.00;;;;339913;28;97380;-94
2021/08/24 00:30:03;;;;;;;;;;;18.30;95.00;18.50;99714.00;;;;342069;28;82488;-94
2021/08/24 00:30:15;;;;;;;;;;;18.30;95.00;18.40;99712.00;;;;343864;28;96898;-94
2021/08/24 00:30:27;;;;;;;;;;;18.30;95.00;18.30;99719.00;;;;343286;28;83510;-93
2021/08/24 00:30:39;;;;;;;;;;;18.30;95.10;18.40;99711.00;;;;344052;28;96315;-94
2021/08/24 00:30:51;;;;;;;;;;;18.30;95.10;18.40;99714.00;;;;343414;28;82473;-93
2021/08/24 00:31:03;;;;;;;;;;;18.30;95.10;18.50;99712.00;;;;342581;28;97669;-93
2021/08/24 00:31:15;;;;;;;;;;;18.30;95.00;18.40;99707.00;;;;344737;28;83391;-94
2021/08/24 00:31:27;;;;;;;;;;;18.30;95.10;18.40;99713.00;;;;342604;28;96452;-94
2021/08/24 00:31:39;;;;;;;;;;;18.30;95.00;18.40;99708.00;;;;342011;28;83462;-93
2021/08/24 00:31:51;;;;;;;;;;;18.30;95.00;18.40;99711.00;;;;342642;28;96793;-94
2021/08/24 00:32:03;;;;;;;;;;;18.30;95.00;18.40;99727.00;;;;343211;28;83487;-93
2021/08/24 00:32:15;;;;;;;;;;;18.30;95.00;18.40;99708.00;;;;342871;28;95564;-93
2021/08/24 00:32:29;;;;;;;;;;;18.30;95.00;18.40;99704.00;;;;341895;28;83558;-93
2021/08/24 00:32:41;;;;;;;;;;;18.30;95.00;18.40;99707.00;;;;342556;28;96553;-93
2021/08/24 00:32:53;;;;;;;;;;;18.30;95.00;18.50;99715.00;;;;340568;28;83503;-94
2021/08/24 00:33:06;;;;;;;;;;;18.30;95.00;18.50;99717.00;;;;341099;28;98371;-93
2021/08/24 00:33:18;;;;;;;;;;;18.30;95.00;18.40;99716.00;;;;344773;28;82647;-93
2021/08/24 00:33:30;;;;;;;;;;;18.30;95.10;18.50;99709.00;;;;339849;28;96293;-93
2021/08/24 00:33:42;;;;;;;;;;;18.30;95.10;18.50;99715.00;;;;337987;28;82620;-93
2021/08/24 00:33:53;;;;;;;;;;;18.30;95.10;18.50;99711.00;;;;338625;28;96526;-93
2021/08/24 00:34:05;;;;;;;;;;;18.30;95.10;18.50;99715.00;;;;343377;28;83424;-93
2021/08/24 00:34:17;;;;;;;;;;;18.30;95.10;18.50;99712.00;;;;341241;28;95697;-94
2021/08/24 00:34:29;;;;;;;;;;;18.30;95.10;18.50;99719.00;;;;340523;28;83480;-93
2021/08/24 00:34:41;;;;;;;;;;;18.30;95.10;18.50;99715.00;;;;344046;28;96154;-93
2021/08/24 00:34:53;;;;;;;;;;;18.30;95.10;18.30;99717.00;;;;344800;28;82536;-94
2021/08/24 00:35:05;;;;;;;;;;;18.30;95.20;18.30;99718.00;;;;338179;28;97900;-93
2021/08/24 00:35:17;;;;;;;;;;;18.30;95.20;18.40;99703.00;;;;340676;28;83425;-92
2021/08/24 00:35:29;;;;;;;;;;;18.30;95.20;18.40;99714.00;;;;342473;28;96261;-94
2021/08/24 00:35:41;;;;;;;;;;;18.30;95.20;18.40;99721.00;;;;342792;28;83551;-94
2021/08/24 00:35:53;;;;;;;;;;;18.30;95.20;18.40;99717.00;;;;341104;28;96744;-93
2021/08/24 00:36:05;;;;;;;;;;;18.30;95.30;18.40;99703.00;;;;342116;28;82909;-94
2021/08/24 00:36:17;;;;;;;;;;;18.30;95.20;18.40;99709.00;;;;339853;28;96357;-94
2021/08/24 00:36:29;;;;;;;;;;;18.30;95.30;18.30;99711.00;;;;343265;28;83550;-94
2021/08/24 00:36:41;;;;;;;;;;;18.30;95.20;18.30;99718.00;;;;339866;28;96414;-93
2021/08/24 00:36:53;;;;;;;;;;;18.30;95.20;18.40;99725.00;;;;341961;28;83448;-93
2021/08/24 00:37:05;;;;;;;;;;;18.30;95.20;18.40;99715.00;;;;341136;28;97710;-95
2021/08/24 00:37:19;;;;;;;;;;;18.30;95.10;18.40;99722.00;;;;344768;28;83510;-93
2021/08/24 00:37:31;;;;;;;;;;;18.30;95.20;18.40;99719.00;;;;342598;28;95429;-94
2021/08/24 00:37:43;;;;;;;;;;;18.30;95.20;18.40;99722.00;;;;341980;28;83474;-93
2021/08/24 00:37:55;;;;;;;;;;;18.30;95.30;18.40;99717.00;;;;341167;28;95372;-93
2021/08/24 00:38:10;;;;;;;;;;;18.30;95.20;18.40;99718.00;;;;342304;28;82442;-94
2021/08/24 00:38:23;;;;;;;;;;;18.30;95.30;18.40;99711.00;;;;342874;28;95715;-93
2021/08/24 00:38:34;;;;;;;;;;;18.30;95.30;18.30;99719.00;;;;343448;28;83478;-94
2021/08/24 00:38:47;;;;;;;;;;;18.30;95.30;18.40;99718.00;;;;342553;28;96659;-94
2021/08/24 00:38:59;;;;;;;;;;;18.30;95.30;18.40;99719.00;;;;343108;28;83835;-94
2021/08/24 00:39:11;;;;;;;;;;;18.30;95.30;18.40;99716.00;;;;341037;28;96871;-94
2021/08/24 00:39:23;;;;;;;;;;;18.30;95.30;18.40;99710.00;;;;342076;28;82545;-94
2021/08/24 00:39:35;;;;;;;;;;;18.30;95.30;18.40;99710.00;;;;342479;28;97219;-94
2021/08/24 00:39:47;;;;;;;;;;;18.30;95.40;18.40;99724.00;;;;343167;28;82589;-94
2021/08/24 00:39:59;;;;;;;;;;;18.30;95.50;18.30;99719.00;;;;342620;28;97212;-93
2021/08/24 00:40:11;;;;;;;;;;;18.30;95.50;18.30;99723.00;;;;343417;28;83414;-94
2021/08/24 00:40:23;;;;;;;;;;;18.20;95.40;18.30;99720.00;;;;342523;28;97116;-94
2021/08/24 00:40:35;;;;;;;;;;;18.20;95.40;18.30;99725.00;;;;344664;28;83605;-94
2021/08/24 00:40:57;;;;;;;;;;;18.20;95.40;18.40;99714.00;;;;342624;28;96670;-94
2021/08/24 00:41:09;;;;;;;;;;;18.20;95.40;18.40;99725.00;;;;340212;28;82601;-93
2021/08/24 00:41:21;;;;;;;;;;;18.30;95.40;18.40;99717.00;;;;339613;28;97969;-93
2021/08/24 00:41:35;;;;;;;;;;;18.30;95.40;18.40;99727.00;;;;343355;28;83511;-93
2021/08/24 00:41:47;;;;;;;;;;;18.30;95.40;18.40;99717.00;;;;341319;28;96178;-93
2021/08/24 00:41:59;;;;;;;;;;;18.20;95.40;18.40;99717.00;;;;342070;28;82506;-93
2021/08/24 00:42:12;;;;;;;;;;;18.30;95.70;18.30;99724.00;;;;341731;28;96885;-92
2021/08/24 00:42:24;;;;;;;;;;;18.20;95.40;18.40;99722.00;;;;343377;28;82537;-93
2021/08/24 00:42:37;;;;;;;;;;;18.20;95.40;18.30;99722.00;;;;342613;28;97083;-93
2021/08/24 00:42:49;;;;;;;;;;;18.20;95.40;18.30;99729.00;;;;346253;28;82453;-93
2021/08/24 00:43:01;;;;;;;;;;;18.20;95.40;18.40;99723.00;;;;342517;28;96704;-94
2021/08/24 00:43:13;;;;;;;;;;;18.20;95.40;18.40;99718.00;;;;340699;28;83987;-93
2021/08/24 00:43:25;;;;;;;;;;;18.30;95.50;18.40;99723.00;;;;341178;28;97443;-94
2021/08/24 00:43:39;;;;;;;;;;;18.30;95.50;18.40;99721.00;;;;341835;28;82563;-93
2021/08/24 00:43:51;;;;;;;;;;;18.30;95.50;18.40;99717.00;;;;341167;28;96992;-93
2021/08/24 00:44:05;;;;;;;;;;;18.30;95.50;18.50;99718.00;;;;342002;28;83497;-94
2021/08/24 00:44:17;;;;;;;;;;;18.20;95.50;18.50;99720.00;;;;342432;28;96189;-94
2021/08/24 00:44:29;;;;;;;;;;;18.30;95.50;18.50;99719.00;;;;341991;28;82562;-93
2021/08/24 00:44:43;;;;;;;;;;;18.20;95.40;18.50;99711.00;;;;341166;28;96861;-93
2021/08/24 00:44:55;;;;;;;;;;;18.30;95.50;18.50;99717.00;;;;341878;28;83583;-94
2021/08/24 00:45:08;;;;;;;;;;;18.30;95.50;18.40;99716.00;;;;341268;28;96266;-92
2021/08/24 00:45:20;;;;;;;;;;;18.30;95.50;18.30;99720.00;;;;342095;28;83546;-93
2021/08/24 00:45:33;;;;;;;;;;;18.30;95.60;18.30;99718.00;;;;341036;28;97742;-94
2021/08/24 00:45:46;;;;;;;;;;;18.30;95.60;18.40;99717.00;;;;337854;28;83430;-93
2021/08/24 00:46:22;;;;;;;;;;;18.20;95.60;18.40;99719.00;;;;341191;28;95656;-94
2021/08/24 00:46:40;;;;;;;;;;;18.30;95.60;18.20;99722.00;;;;341890;28;83333;-93
2021/08/24 00:46:52;;;;;;;;;;;18.20;95.60;18.30;99717.00;;;;341239;28;95538;-94
2021/08/24 00:47:04;;;;;;;;;;;18.20;95.60;18.40;99722.00;;;;341741;28;82568;-94
2021/08/24 00:47:18;;;;;;;;;;;18.20;95.60;18.40;99717.00;;;;342400;28;95569;-93
2021/08/24 00:47:30;;;;;;;;;;;18.30;95.60;18.40;99715.00;;;;342063;28;83384;-94
2021/08/24 00:47:43;;;;;;;;;;;18.30;95.60;18.30;99718.00;;;;341200;28;96711;-94
2021/08/24 00:47:55;;;;;;;;;;;18.30;95.60;18.40;99715.00;;;;343343;28;82542;-93
2021/08/24 00:48:07;;;;;;;;;;;18.20;95.60;18.30;99724.00;;;;340954;28;98247;-94
2021/08/24 00:48:24;;;;;;;;;;;18.30;95.70;18.30;99715.00;;;;344523;28;83521;-93
2021/08/24 00:48:36;;;;;;;;;;;18.30;95.70;18.30;99719.00;;;;339850;28;96867;-93
2021/08/24 00:48:48;;;;;;;;;;;18.20;95.70;18.40;99715.00;;;;343467;28;83499;-93
2021/08/24 00:49:05;;;;;;;;;;;18.30;95.70;18.40;99711.00;;;;343907;28;96370;-94
2021/08/24 00:49:24;;;;;;;;;;;18.30;96.00;18.20;99713.00;;;;343210;28;82623;-92
2021/08/24 00:49:36;;;;;;;;;;;18.20;95.70;18.20;99716.00;;;;341066;28;96774;-93
2021/08/24 00:49:48;;;;;;;;;;;18.20;95.70;18.30;99710.00;;;;341992;28;82614;-93
2021/08/24 00:50:05;;;;;;;;;;;18.20;95.80;18.30;99715.00;;;;341219;28;96375;-93
2021/08/24 00:50:19;;;;;;;;;;;18.20;95.70;18.30;99717.00;;;;341299;28;83551;-93
2021/08/24 00:50:38;;;;;;;;;;;18.20;95.80;18.30;99711.00;;;;343888;28;97802;-93
2021/08/24 00:50:50;;;;;;;;;;;18.20;95.80;18.30;99717.00;;;;344398;28;83430;-94
2021/08/24 00:51:02;;;;;;;;;;;18.20;95.70;18.30;99722.00;;;;343960;28;96661;-94
2021/08/24 00:51:16;;;;;;;;;;;18.20;95.80;18.20;99722.00;;;;344571;28;83527;-95
2021/08/24 00:51:28;;;;;;;;;;;18.20;95.80;18.30;99717.00;;;;342611;28;96606;-94
2021/08/24 00:51:41;;;;;;;;;;;18.20;95.80;18.30;99717.00;;;;341909;28;83423;-94
2021/08/24 00:52:02;;;;;;;;;;;18.20;95.80;18.40;99721.00;;;;342657;28;95310;-93
2021/08/24 00:52:16;;;;;;;;;;;18.20;95.80;18.40;99713.00;;;;343342;28;82611;-94
2021/08/24 00:52:27;;;;;;;;;;;18.20;95.70;18.30;99713.00;;;;339927;28;96384;-93
2021/08/24 00:52:39;;;;;;;;;;;18.20;95.70;18.40;99712.00;;;;342053;28;82532;-94
2021/08/24 00:52:51;;;;;;;;;;;18.20;95.90;18.40;99712.00;;;;341078;28;97499;-93
2021/08/24 00:53:05;;;;;;;;;;;18.20;95.70;18.30;99718.00;;;;340554;28;82549;-94
2021/08/24 00:53:19;;;;;;;;;;;18.20;95.70;18.40;99717.00;;;;342295;28;97690;-94
2021/08/24 00:53:32;;;;;;;;;;;18.20;95.70;18.30;99720.00;;;;343338;28;83502;-94
2021/08/24 00:53:43;;;;;;;;;;;18.20;95.70;18.30;99706.00;;;;343813;28;95908;-93
2021/08/24 00:53:55;;;;;;;;;;;18.20;95.70;18.40;99712.00;;;;343398;28;82518;-94
2021/08/24 00:54:08;;;;;;;;;;;18.20;95.70;18.40;99707.00;;;;339945;28;95938;-94
2021/08/24 00:54:21;;;;;;;;;;;18.20;95.80;18.30;99710.00;;;;340575;28;83489;-93
2021/08/24 00:54:34;;;;;;;;;;;18.20;95.80;18.30;99713.00;;;;343913;28;95976;-93
2021/08/24 00:54:46;;;;;;;;;;;18.20;95.80;18.20;99714.00;;;;343389;28;83569;-94
2021/08/24 00:54:57;;;;;;;;;;;18.20;95.80;18.30;99710.00;;;;341169;28;97822;-94
2021/08/24 00:55:09;;;;;;;;;;;18.20;95.80;18.30;99711.00;;;;344490;28;83779;-94
2021/08/24 00:55:21;;;;;;;;;;;18.20;95.80;18.40;99718.00;;;;341176;28;95082;-94
2021/08/24 00:55:33;;;;;;;;;;;18.20;95.80;18.40;99713.00;;;;343305;28;83373;-94
2021/08/24 00:55:45;;;;;;;;;;;18.20;95.80;18.40;99715.00;;;;343890;28;96448;-94
2021/08/24 00:55:57;;;;;;;;;;;18.20;95.70;18.40;99708.00;;;;342043;28;83250;-94
2021/08/24 00:56:09;;;;;;;;;;;18.20;95.70;18.40;99715.00;;;;340846;28;95614;-93
2021/08/24 00:56:21;;;;;;;;;;;18.20;95.70;18.40;99705.00;;;;342011;28;82545;-94
2021/08/24 00:56:33;;;;;;;;;;;18.20;95.80;18.40;99706.00;;;;342550;28;97207;-94
2021/08/24 00:56:47;;;;;;;;;;;18.20;95.80;18.30;99704.00;;;;343388;28;83461;-94
2021/08/24 00:57:04;;;;;;;;;;;18.20;95.80;18.40;99706.00;;;;342360;28;96867;-93
2021/08/24 00:57:20;;;;;;;;;;;18.20;95.80;18.30;99710.00;;;;343192;28;82633;-94
2021/08/24 00:57:32;;;;;;;;;;;18.20;95.90;18.30;99711.00;;;;341163;28;96408;-94
2021/08/24 00:57:45;;;;;;;;;;;18.20;95.80;18.30;99703.00;;;;343372;28;83432;-93
2021/08/24 00:58:05;;;;;;;;;;;18.20;95.80;18.30;99715.00;;;;339890;28;96537;-93
2021/08/24 00:58:17;;;;;;;;;;;18.20;95.80;18.40;99715.00;;;;341878;28;83497;-94
2021/08/24 00:58:29;;;;;;;;;;;18.20;95.80;18.40;99710.00;;;;341292;28;96292;-93
2021/08/24 00:58:41;;;;;;;;;;;18.20;95.90;18.30;99706.00;;;;343382;28;82578;-93
2021/08/24 00:58:53;;;;;;;;;;;18.20;95.90;18.40;99709.00;;;;342624;28;96189;-93
2021/08/24 00:59:05;;;;;;;;;;;18.20;95.90;18.40;99709.00;;;;343428;28;82545;-93
2021/08/24 00:59:17;;;;;;;;;;;18.20;95.90;18.30;99702.00;;;;345030;28;97693;-94
2021/08/24 00:59:29;;;;;;;;;;;18.20;95.90;18.30;99703.00;;;;343345;28;83494;-93
2021/08/24 00:59:41;;;;;;;;;;;18.20;95.90;18.30;99709.00;;;;340526;28;95765;-93
2021/08/24 00:59:53;;;;;;;;;;;18.20;95.80;18.20;99713.00;;;;343372;28;83477;-94
2021/08/24 01:00:05;;;;;;;;;;;18.20;95.80;18.20;99716.00;;;;339896;28;96349;-94
2021/08/24 01:00:17;;;;;;;;;;;18.20;95.90;18.30;99716.00;;;;343335;28;82508;-94
2021/08/24 01:00:31;;;;;;;;;;;18.20;95.90;18.30;99705.00;;;;342555;28;95838;-93
2021/08/24 01:00:44;;;;;;;;;;;18.20;95.90;18.20;99710.00;;;;342002;28;83614;-93
2021/08/24 01:00:56;;;;;;;;;;;18.20;96.00;18.10;99712.00;;;;343906;28;96318;-93
2021/08/24 01:01:09;;;;;;;;;;;18.10;96.00;18.20;99709.00;;;;340636;28;83418;-94
2021/08/24 01:01:21;;;;;;;;;;;18.10;96.00;18.30;99709.00;;;;340855;28;96639;-94
2021/08/24 01:01:34;;;;;;;;;;;18.10;96.00;18.30;99713.00;;;;344482;28;83538;-93
2021/08/24 01:01:47;;;;;;;;;;;18.20;96.00;18.30;99713.00;;;;342520;28;95670;-93
2021/08/24 01:01:59;;;;;;;;;;;18.10;96.00;18.30;99711.00;;;;340703;28;83499;-94
2021/08/24 01:02:11;;;;;;;;;;;18.20;96.00;18.30;99702.00;;;;342005;28;97135;-93
2021/08/24 01:02:25;;;;;;;;;;;18.20;96.00;18.40;99704.00;;;;344544;28;82431;-93
2021/08/24 01:02:37;;;;;;;;;;;18.10;96.00;18.30;99711.00;;;;341291;28;96588;-94
2021/08/24 01:02:49;;;;;;;;;;;18.20;96.10;18.30;99707.00;;;;346152;28;83484;-94